sensor_id;sensor_type;location;lat;lon;timestamp;temperature;humidity
15357;DHT22;7778;48.792;9.260;2022-12-20T00:01:43;4.80;99.90
15357;DHT22;7778;48.792;9.260;2022-12-20T00:04:30;4.80;99.90
15357;DHT22;7778;48.792;9.260;2022-12-20T00:07:16;4.70;99.90
15357;DHT22;7778;48.792;9.260;2022-12-20T00:10:02;4.50;99.90
15357;DHT22;7778;48.792;9.260;2022-12-20T00:12:49;4.40;99.90
15357;DHT22;7778;48.792;9.260;2022-12-20T00:15:36;4.60;99.90
15357;DHT22;7778;48.792;9.260;2022-12-20T00:18:22;4.70;99.90
15357;DHT22;7778;48.792;9.260;2022-12-20T00:21:10;4.90;99.90
15357;DHT22;7778;48.792;9.260;2022-12-20T00:23:57;5.20;99.90
15357;DHT22;7778;48.792;9.260;2022-12-20T00:26:43;5.20;99.90
15357;DHT22;7778;48.792;9.260;2022-12-20T00:29:28;5.20;99.90
15357;DHT22;7778;48.792;9.260;2022-12-20T00:32:14;5.20;99.90
15357;DHT22;7778;48.792;9.260;2022-12-20T00:34:59;5.20;99.90
15357;DHT22;7778;48.792;9.260;2022-12-20T00:37:46;4.90;99.90
15357;DHT22;7778;48.792;9.260;2022-12-20T00:40:32;4.80;99.90
15357;DHT22;7778;48.792;9.260;2022-12-20T00:43:18;4.60;99.90
15357;DHT22;7778;48.792;9.260;2022-12-20T00:46:03;4.50;99.90
15357;DHT22;7778;48.792;9.260;2022-12-20T00:48:49;4.40;99.90
15357;DHT22;7778;48.792;9.260;2022-12-20T00:51:36;4.30;99.90
15357;DHT22;7778;48.792;9.260;2022-12-20T00:54:23;4.20;99.90
15357;DHT22;7778;48.792;9.260;2022-12-20T00:57:08;4.10;99.90
15357;DHT22;7778;48.792;9.260;2022-12-20T00:59:54;4.20;99.90
15357;DHT22;7778;48.792;9.260;2022-12-20T01:02:39;4.20;99.90
15357;DHT22;7778;48.792;9.260;2022-12-20T01:05:25;4.10;99.90
15357;DHT22;7778;48.792;9.260;2022-12-20T01:08:11;4.10;99.90
15357;DHT22;7778;48.792;9.260;2022-12-20T01:10:59;4.00;99.90
15357;DHT22;7778;48.792;9.260;2022-12-20T01:13:47;4.00;99.90
15357;DHT22;7778;48.792;9.260;2022-12-20T01:16:36;4.10;99.90
15357;DHT22;7778;48.792;9.260;2022-12-20T01:19:22;4.10;99.90
15357;DHT22;7778;48.792;9.260;2022-12-20T01:22:08;4.20;99.90
15357;DHT22;7778;48.792;9.260;2022-12-20T01:24:54;4.10;99.90
15357;DHT22;7778;48.792;9.260;2022-12-20T01:27:41;4.10;99.90
15357;DHT22;7778;48.792;9.260;2022-12-20T01:30:26;4.20;99.90
15357;DHT22;7778;48.792;9.260;2022-12-20T01:33:12;4.10;99.90
15357;DHT22;7778;48.792;9.260;2022-12-20T01:35:59;4.10;99.90
15357;DHT22;7778;48.792;9.260;2022-12-20T01:38:46;4.00;99.90
15357;DHT22;7778;48.792;9.260;2022-12-20T01:41:33;4.10;99.90
15357;DHT22;7778;48.792;9.260;2022-12-20T01:44:53;4.10;99.90
15357;DHT22;7778;48.792;9.260;2022-12-20T01:47:40;4.10;99.90
15357;DHT22;7778;48.792;9.260;2022-12-20T01:50:26;3.90;99.90
15357;DHT22;7778;48.792;9.260;2022-12-20T01:53:13;3.90;99.90
15357;DHT22;7778;48.792;9.260;2022-12-20T01:56:02;3.80;99.90
15357;DHT22;7778;48.792;9.260;2022-12-20T01:58:50;3.70;99.90
15357;DHT22;7778;48.792;9.260;2022-12-20T02:01:40;3.90;99.90
15357;DHT22;7778;48.792;9.260;2022-12-20T02:04:26;3.70;99.90
15357;DHT22;7778;48.792;9.260;2022-12-20T02:07:17;3.70;99.90
15357;DHT22;7778;48.792;9.260;2022-12-20T02:10:07;3.60;99.90
15357;DHT22;7778;48.792;9.260;2022-12-20T02:13:00;3.50;99.90
15357;DHT22;7778;48.792;9.260;2022-12-20T02:15:52;3.50;99.90
15357;DHT22;7778;48.792;9.260;2022-12-20T02:18:43;3.50;99.90
15357;DHT22;7778;48.792;9.260;2022-12-20T02:21:34;3.40;99.90
15357;DHT22;7778;48.792;9.260;2022-12-20T02:24:45;3.50;99.90
15357;DHT22;7778;48.792;9.260;2022-12-20T02:27:55;3.50;99.90
15357;DHT22;7778;48.792;9.260;2022-12-20T02:30:46;3.60;99.90
15357;DHT22;7778;48.792;9.260;2022-12-20T02:33:33;3.40;99.90
15357;DHT22;7778;48.792;9.260;2022-12-20T02:36:19;3.70;99.90
15357;DHT22;7778;48.792;9.260;2022-12-20T02:39:04;3.50;99.90
15357;DHT22;7778;48.792;9.260;2022-12-20T02:41:53;3.60;99.90
15357;DHT22;7778;48.792;9.260;2022-12-20T02:44:42;3.70;99.90
15357;DHT22;7778;48.792;9.260;2022-12-20T02:47:52;3.80;99.90
15357;DHT22;7778;48.792;9.260;2022-12-20T02:50:42;4.00;99.90
15357;DHT22;7778;48.792;9.260;2022-12-20T02:53:30;4.00;99.90
15357;DHT22;7778;48.792;9.260;2022-12-20T02:56:19;4.10;99.90
15357;DHT22;7778;48.792;9.260;2022-12-20T02:59:10;4.20;99.90
15357;DHT22;7778;48.792;9.260;2022-12-20T03:01:58;4.30;99.90
15357;DHT22;7778;48.792;9.260;2022-12-20T03:04:45;4.40;99.90
15357;DHT22;7778;48.792;9.260;2022-12-20T03:07:33;4.50;99.90
15357;DHT22;7778;48.792;9.260;2022-12-20T03:10:19;4.60;99.90
15357;DHT22;7778;48.792;9.260;2022-12-20T03:13:05;4.70;99.90
15357;DHT22;7778;48.792;9.260;2022-12-20T03:15:51;4.80;99.90
15357;DHT22;7778;48.792;9.260;2022-12-20T03:18:36;5.00;99.90
15357;DHT22;7778;48.792;9.260;2022-12-20T03:21:24;5.00;99.90
15357;DHT22;7778;48.792;9.260;2022-12-20T03:24:10;5.20;99.90
15357;DHT22;7778;48.792;9.260;2022-12-20T03:26:56;5.20;99.90
15357;DHT22;7778;48.792;9.260;2022-12-20T03:29:42;5.30;99.90
15357;DHT22;7778;48.792;9.260;2022-12-20T03:32:29;5.20;99.90
15357;DHT22;7778;48.792;9.260;2022-12-20T03:35:14;5.30;99.90
15357;DHT22;7778;48.792;9.260;2022-12-20T03:38:02;5.40;99.90
15357;DHT22;7778;48.792;9.260;2022-12-20T03:40:47;5.40;99.90
15357;DHT22;7778;48.792;9.260;2022-12-20T03:43:33;5.30;99.90
15357;DHT22;7778;48.792;9.260;2022-12-20T03:46:19;5.30;99.90
15357;DHT22;7778;48.792;9.260;2022-12-20T03:49:04;5.30;99.90
15357;DHT22;7778;48.792;9.260;2022-12-20T03:51:50;5.30;99.90
15357;DHT22;7778;48.792;9.260;2022-12-20T03:54:37;5.20;99.90
15357;DHT22;7778;48.792;9.260;2022-12-20T03:57:22;5.20;99.90
15357;DHT22;7778;48.792;9.260;2022-12-20T04:00:09;5.20;99.90
15357;DHT22;7778;48.792;9.260;2022-12-20T04:02:57;5.30;99.90
15357;DHT22;7778;48.792;9.260;2022-12-20T04:05:43;5.30;99.90
15357;DHT22;7778;48.792;9.260;2022-12-20T04:08:28;5.30;99.90
15357;DHT22;7778;48.792;9.260;2022-12-20T04:11:15;5.20;99.90
15357;DHT22;7778;48.792;9.260;2022-12-20T04:14:01;5.20;99.90
15357;DHT22;7778;48.792;9.260;2022-12-20T04:16:46;5.20;99.90
15357;DHT22;7778;48.792;9.260;2022-12-20T04:19:32;5.20;99.90
15357;DHT22;7778;48.792;9.260;2022-12-20T04:22:18;5.30;99.90
15357;DHT22;7778;48.792;9.260;2022-12-20T04:25:04;5.40;99.90
15357;DHT22;7778;48.792;9.260;2022-12-20T04:27:51;5.50;99.90
15357;DHT22;7778;48.792;9.260;2022-12-20T04:30:37;5.50;99.90
15357;DHT22;7778;48.792;9.260;2022-12-20T04:33:23;5.60;99.90
15357;DHT22;7778;48.792;9.260;2022-12-20T04:36:09;5.60;99.90
15357;DHT22;7778;48.792;9.260;2022-12-20T04:38:55;5.70;99.90
15357;DHT22;7778;48.792;9.260;2022-12-20T04:41:40;5.60;99.90
15357;DHT22;7778;48.792;9.260;2022-12-20T04:44:27;5.60;99.90
15357;DHT22;7778;48.792;9.260;2022-12-20T04:47:13;5.50;99.90
15357;DHT22;7778;48.792;9.260;2022-12-20T04:49:58;5.40;99.90
15357;DHT22;7778;48.792;9.260;2022-12-20T04:52:44;5.40;99.90
15357;DHT22;7778;48.792;9.260;2022-12-20T04:55:47;5.50;99.90
15357;DHT22;7778;48.792;9.260;2022-12-20T04:58:33;5.50;99.90
15357;DHT22;7778;48.792;9.260;2022-12-20T05:01:20;5.50;99.90
15357;DHT22;7778;48.792;9.260;2022-12-20T05:04:10;5.50;99.90
15357;DHT22;7778;48.792;9.260;2022-12-20T05:06:56;5.70;99.90
15357;DHT22;7778;48.792;9.260;2022-12-20T05:09:41;5.70;99.90
15357;DHT22;7778;48.792;9.260;2022-12-20T05:12:27;5.60;99.90
15357;DHT22;7778;48.792;9.260;2022-12-20T05:15:13;5.90;99.90
15357;DHT22;7778;48.792;9.260;2022-12-20T05:18:01;5.80;99.90
15357;DHT22;7778;48.792;9.260;2022-12-20T05:20:48;5.80;99.90
15357;DHT22;7778;48.792;9.260;2022-12-20T05:23:54;5.90;99.90
15357;DHT22;7778;48.792;9.260;2022-12-20T05:26:58;6.00;99.90
15357;DHT22;7778;48.792;9.260;2022-12-20T05:29:44;6.00;99.90
15357;DHT22;7778;48.792;9.260;2022-12-20T05:32:29;6.00;99.90
15357;DHT22;7778;48.792;9.260;2022-12-20T05:35:16;6.00;99.90
15357;DHT22;7778;48.792;9.260;2022-12-20T05:38:02;6.00;99.90
15357;DHT22;7778;48.792;9.260;2022-12-20T05:40:49;6.00;99.90
15357;DHT22;7778;48.792;9.260;2022-12-20T05:43:35;6.00;99.90
15357;DHT22;7778;48.792;9.260;2022-12-20T05:46:21;6.10;99.90
15357;DHT22;7778;48.792;9.260;2022-12-20T05:49:06;6.00;99.90
15357;DHT22;7778;48.792;9.260;2022-12-20T05:51:53;6.10;99.90
15357;DHT22;7778;48.792;9.260;2022-12-20T05:54:39;6.10;99.90
15357;DHT22;7778;48.792;9.260;2022-12-20T05:57:24;6.30;99.90
15357;DHT22;7778;48.792;9.260;2022-12-20T06:00:11;6.10;99.90
15357;DHT22;7778;48.792;9.260;2022-12-20T06:02:58;6.10;99.90
15357;DHT22;7778;48.792;9.260;2022-12-20T06:05:43;6.00;99.90
15357;DHT22;7778;48.792;9.260;2022-12-20T06:08:31;6.10;99.90
15357;DHT22;7778;48.792;9.260;2022-12-20T06:11:16;6.20;99.90
15357;DHT22;7778;48.792;9.260;2022-12-20T06:14:02;6.20;99.90
15357;DHT22;7778;48.792;9.260;2022-12-20T06:16:47;6.20;99.90
15357;DHT22;7778;48.792;9.260;2022-12-20T06:19:32;6.30;99.90
15357;DHT22;7778;48.792;9.260;2022-12-20T06:22:18;6.10;99.90
15357;DHT22;7778;48.792;9.260;2022-12-20T06:25:06;6.10;99.90
15357;DHT22;7778;48.792;9.260;2022-12-20T06:27:52;6.30;99.90
15357;DHT22;7778;48.792;9.260;2022-12-20T06:30:37;6.30;99.90
15357;DHT22;7778;48.792;9.260;2022-12-20T06:33:23;6.40;99.90
15357;DHT22;7778;48.792;9.260;2022-12-20T06:36:09;6.40;99.90
15357;DHT22;7778;48.792;9.260;2022-12-20T06:38:55;6.50;99.90
15357;DHT22;7778;48.792;9.260;2022-12-20T06:41:41;6.40;99.90
15357;DHT22;7778;48.792;9.260;2022-12-20T06:44:27;6.50;99.90
15357;DHT22;7778;48.792;9.260;2022-12-20T06:47:13;6.50;99.90
15357;DHT22;7778;48.792;9.260;2022-12-20T06:49:58;6.70;99.90
15357;DHT22;7778;48.792;9.260;2022-12-20T06:52:44;6.50;99.90
15357;DHT22;7778;48.792;9.260;2022-12-20T06:55:29;6.60;99.90
15357;DHT22;7778;48.792;9.260;2022-12-20T06:58:16;6.80;99.90
15357;DHT22;7778;48.792;9.260;2022-12-20T07:01:03;6.60;99.90
15357;DHT22;7778;48.792;9.260;2022-12-20T07:03:48;6.60;99.90
15357;DHT22;7778;48.792;9.260;2022-12-20T07:06:34;6.60;99.90
15357;DHT22;7778;48.792;9.260;2022-12-20T07:09:20;6.60;99.90
15357;DHT22;7778;48.792;9.260;2022-12-20T07:12:06;6.50;99.90
15357;DHT22;7778;48.792;9.260;2022-12-20T07:14:53;6.60;99.90
15357;DHT22;7778;48.792;9.260;2022-12-20T07:17:38;6.60;99.90
15357;DHT22;7778;48.792;9.260;2022-12-20T07:20:24;6.70;99.90
15357;DHT22;7778;48.792;9.260;2022-12-20T07:23:09;6.70;99.90
15357;DHT22;7778;48.792;9.260;2022-12-20T07:25:56;6.80;99.90
15357;DHT22;7778;48.792;9.260;2022-12-20T07:28:42;6.80;99.90
15357;DHT22;7778;48.792;9.260;2022-12-20T07:31:29;6.80;99.90
15357;DHT22;7778;48.792;9.260;2022-12-20T07:34:15;6.90;99.90
15357;DHT22;7778;48.792;9.260;2022-12-20T07:37:00;6.90;99.90
15357;DHT22;7778;48.792;9.260;2022-12-20T07:39:46;6.90;99.90
15357;DHT22;7778;48.792;9.260;2022-12-20T07:42:31;6.90;99.90
15357;DHT22;7778;48.792;9.260;2022-12-20T07:45:17;6.90;99.90
15357;DHT22;7778;48.792;9.260;2022-12-20T07:48:04;6.90;99.90
15357;DHT22;7778;48.792;9.260;2022-12-20T07:50:51;6.90;99.90
15357;DHT22;7778;48.792;9.260;2022-12-20T07:53:39;7.00;99.90
15357;DHT22;7778;48.792;9.260;2022-12-20T07:56:28;7.10;99.90
15357;DHT22;7778;48.792;9.260;2022-12-20T07:59:19;7.10;99.90
15357;DHT22;7778;48.792;9.260;2022-12-20T08:02:08;7.10;99.90
15357;DHT22;7778;48.792;9.260;2022-12-20T08:04:58;7.20;99.90
15357;DHT22;7778;48.792;9.260;2022-12-20T08:07:45;7.20;99.90
15357;DHT22;7778;48.792;9.260;2022-12-20T08:10:31;7.20;99.90
15357;DHT22;7778;48.792;9.260;2022-12-20T08:13:17;7.20;99.90
15357;DHT22;7778;48.792;9.260;2022-12-20T08:16:03;7.30;99.90
15357;DHT22;7778;48.792;9.260;2022-12-20T08:18:49;7.40;99.90
15357;DHT22;7778;48.792;9.260;2022-12-20T08:21:37;7.40;99.90
15357;DHT22;7778;48.792;9.260;2022-12-20T08:24:22;7.50;99.90
15357;DHT22;7778;48.792;9.260;2022-12-20T08:27:08;7.60;99.90
15357;DHT22;7778;48.792;9.260;2022-12-20T08:29:54;7.70;99.90
15357;DHT22;7778;48.792;9.260;2022-12-20T08:32:40;7.70;99.90
15357;DHT22;7778;48.792;9.260;2022-12-20T08:35:25;7.90;99.90
15357;DHT22;7778;48.792;9.260;2022-12-20T08:38:12;7.90;99.90
15357;DHT22;7778;48.792;9.260;2022-12-20T08:41:01;7.80;99.90
15357;DHT22;7778;48.792;9.260;2022-12-20T08:43:48;7.80;99.90
15357;DHT22;7778;48.792;9.260;2022-12-20T08:46:33;8.00;99.90
15357;DHT22;7778;48.792;9.260;2022-12-20T08:49:20;8.00;99.90
15357;DHT22;7778;48.792;9.260;2022-12-20T08:52:06;7.90;99.90
15357;DHT22;7778;48.792;9.260;2022-12-20T08:54:53;8.00;99.90
15357;DHT22;7778;48.792;9.260;2022-12-20T08:57:38;7.90;99.90
15357;DHT22;7778;48.792;9.260;2022-12-20T09:00:24;7.80;99.90
15357;DHT22;7778;48.792;9.260;2022-12-20T09:03:10;7.90;99.90
15357;DHT22;7778;48.792;9.260;2022-12-20T09:05:58;7.80;99.90
15357;DHT22;7778;48.792;9.260;2022-12-20T09:08:44;7.80;99.90
15357;DHT22;7778;48.792;9.260;2022-12-20T09:11:31;8.10;99.90
15357;DHT22;7778;48.792;9.260;2022-12-20T09:14:17;8.00;99.90
15357;DHT22;7778;48.792;9.260;2022-12-20T09:17:03;8.10;99.90
15357;DHT22;7778;48.792;9.260;2022-12-20T09:19:49;8.00;99.90
15357;DHT22;7778;48.792;9.260;2022-12-20T09:22:35;8.10;99.90
15357;DHT22;7778;48.792;9.260;2022-12-20T09:25:20;8.10;99.90
15357;DHT22;7778;48.792;9.260;2022-12-20T09:28:07;8.10;99.90
15357;DHT22;7778;48.792;9.260;2022-12-20T09:30:57;8.00;99.90
15357;DHT22;7778;48.792;9.260;2022-12-20T09:33:43;8.10;99.90
15357;DHT22;7778;48.792;9.260;2022-12-20T09:36:30;8.20;99.90
15357;DHT22;7778;48.792;9.260;2022-12-20T09:39:15;8.20;99.90
15357;DHT22;7778;48.792;9.260;2022-12-20T09:42:06;8.30;99.90
15357;DHT22;7778;48.792;9.260;2022-12-20T09:44:58;8.40;99.90
15357;DHT22;7778;48.792;9.260;2022-12-20T09:47:46;8.30;99.90
15357;DHT22;7778;48.792;9.260;2022-12-20T09:50:42;8.30;99.90
15357;DHT22;7778;48.792;9.260;2022-12-20T09:53:40;8.40;99.90
15357;DHT22;7778;48.792;9.260;2022-12-20T09:56:33;8.30;99.90
15357;DHT22;7778;48.792;9.260;2022-12-20T09:59:20;8.40;99.90
15357;DHT22;7778;48.792;9.260;2022-12-20T10:02:11;8.40;99.90
15357;DHT22;7778;48.792;9.260;2022-12-20T10:05:07;8.50;99.90
15357;DHT22;7778;48.792;9.260;2022-12-20T10:08:02;8.50;99.90
15357;DHT22;7778;48.792;9.260;2022-12-20T10:10:55;8.50;99.90
15357;DHT22;7778;48.792;9.260;2022-12-20T10:13:51;8.80;99.90
15357;DHT22;7778;48.792;9.260;2022-12-20T10:16:43;9.00;99.90
15357;DHT22;7778;48.792;9.260;2022-12-20T10:19:47;8.80;99.90
15357;DHT22;7778;48.792;9.260;2022-12-20T10:22:45;8.60;99.90
15357;DHT22;7778;48.792;9.260;2022-12-20T10:25:34;8.50;99.90
15357;DHT22;7778;48.792;9.260;2022-12-20T10:28:25;8.40;99.90
15357;DHT22;7778;48.792;9.260;2022-12-20T10:31:13;8.40;99.90
15357;DHT22;7778;48.792;9.260;2022-12-20T10:34:00;8.30;99.90
15357;DHT22;7778;48.792;9.260;2022-12-20T10:36:48;8.40;99.90
15357;DHT22;7778;48.792;9.260;2022-12-20T10:39:57;8.40;99.90
15357;DHT22;7778;48.792;9.260;2022-12-20T10:42:43;8.40;99.90
15357;DHT22;7778;48.792;9.260;2022-12-20T10:45:35;8.40;99.90
15357;DHT22;7778;48.792;9.260;2022-12-20T10:48:25;8.40;99.90
15357;DHT22;7778;48.792;9.260;2022-12-20T10:51:16;8.30;99.90
15357;DHT22;7778;48.792;9.260;2022-12-20T10:54:21;8.40;99.90
15357;DHT22;7778;48.792;9.260;2022-12-20T10:57:17;8.40;99.90
15357;DHT22;7778;48.792;9.260;2022-12-20T11:00:06;8.40;99.90
15357;DHT22;7778;48.792;9.260;2022-12-20T11:03:06;8.50;99.90
15357;DHT22;7778;48.792;9.260;2022-12-20T11:05:57;8.60;99.90
15357;DHT22;7778;48.792;9.260;2022-12-20T11:08:45;8.50;99.90
15357;DHT22;7778;48.792;9.260;2022-12-20T11:11:33;8.60;99.90
15357;DHT22;7778;48.792;9.260;2022-12-20T11:14:19;8.60;99.90
15357;DHT22;7778;48.792;9.260;2022-12-20T11:17:24;8.70;99.90
15357;DHT22;7778;48.792;9.260;2022-12-20T11:20:24;8.70;99.90
15357;DHT22;7778;48.792;9.260;2022-12-20T11:23:22;8.80;99.90
15357;DHT22;7778;48.792;9.260;2022-12-20T11:26:24;8.90;99.90
15357;DHT22;7778;48.792;9.260;2022-12-20T11:29:37;8.90;99.90
15357;DHT22;7778;48.792;9.260;2022-12-20T11:32:47;9.00;99.90
15357;DHT22;7778;48.792;9.260;2022-12-20T11:35:50;9.00;99.90
15357;DHT22;7778;48.792;9.260;2022-12-20T11:38:40;9.00;99.90
15357;DHT22;7778;48.792;9.260;2022-12-20T11:41:30;9.10;99.90
15357;DHT22;7778;48.792;9.260;2022-12-20T11:44:28;9.20;99.90
15357;DHT22;7778;48.792;9.260;2022-12-20T11:47:37;9.30;99.90
15357;DHT22;7778;48.792;9.260;2022-12-20T11:50:44;9.30;99.90
15357;DHT22;7778;48.792;9.260;2022-12-20T11:53:42;9.30;99.90
15357;DHT22;7778;48.792;9.260;2022-12-20T11:56:33;9.30;99.90
15357;DHT22;7778;48.792;9.260;2022-12-20T11:59:25;9.20;99.90
15357;DHT22;7778;48.792;9.260;2022-12-20T12:02:24;9.20;99.90
15357;DHT22;7778;48.792;9.260;2022-12-20T12:05:18;9.30;99.90
15357;DHT22;7778;48.792;9.260;2022-12-20T12:08:10;9.30;99.90
15357;DHT22;7778;48.792;9.260;2022-12-20T12:11:04;9.40;99.90
15357;DHT22;7778;48.792;9.260;2022-12-20T12:13:57;9.40;99.90
15357;DHT22;7778;48.792;9.260;2022-12-20T12:16:49;9.50;99.90
15357;DHT22;7778;48.792;9.260;2022-12-20T12:19:40;9.60;99.90
15357;DHT22;7778;48.792;9.260;2022-12-20T12:22:33;9.60;99.90
15357;DHT22;7778;48.792;9.260;2022-12-20T12:25:20;9.60;99.90
15357;DHT22;7778;48.792;9.260;2022-12-20T12:28:05;9.60;99.90
15357;DHT22;7778;48.792;9.260;2022-12-20T12:30:55;9.70;99.90
15357;DHT22;7778;48.792;9.260;2022-12-20T12:33:48;9.70;99.90
15357;DHT22;7778;48.792;9.260;2022-12-20T12:36:46;9.80;99.90
15357;DHT22;7778;48.792;9.260;2022-12-20T12:43:49;9.90;99.90
15357;DHT22;7778;48.792;9.260;2022-12-20T12:46:35;9.80;99.90
15357;DHT22;7778;48.792;9.260;2022-12-20T12:49:27;9.90;99.90
15357;DHT22;7778;48.792;9.260;2022-12-20T12:52:28;10.00;99.90
15357;DHT22;7778;48.792;9.260;2022-12-20T12:55:38;10.20;99.90
15357;DHT22;7778;48.792;9.260;2022-12-20T12:58:34;10.20;99.90
15357;DHT22;7778;48.792;9.260;2022-12-20T13:01:48;10.20;99.90
15357;DHT22;7778;48.792;9.260;2022-12-20T13:04:52;10.30;99.90
15357;DHT22;7778;48.792;9.260;2022-12-20T13:07:41;10.30;99.90
15357;DHT22;7778;48.792;9.260;2022-12-20T13:10:59;10.30;99.90
15357;DHT22;7778;48.792;9.260;2022-12-20T13:13:46;10.30;99.90
15357;DHT22;7778;48.792;9.260;2022-12-20T13:16:32;10.20;99.90
15357;DHT22;7778;48.792;9.260;2022-12-20T13:19:31;10.20;99.90
15357;DHT22;7778;48.792;9.260;2022-12-20T13:22:21;10.10;99.90
15357;DHT22;7778;48.792;9.260;2022-12-20T13:25:26;10.00;99.90
15357;DHT22;7778;48.792;9.260;2022-12-20T13:31:34;10.10;99.90
15357;DHT22;7778;48.792;9.260;2022-12-20T13:34:38;10.00;99.90
15357;DHT22;7778;48.792;9.260;2022-12-20T13:37:53;9.90;99.90
15357;DHT22;7778;48.792;9.260;2022-12-20T13:40:42;9.80;99.90
15357;DHT22;7778;48.792;9.260;2022-12-20T13:43:34;9.70;99.90
15357;DHT22;7778;48.792;9.260;2022-12-20T13:46:25;9.50;99.90
15357;DHT22;7778;48.792;9.260;2022-12-20T13:49:19;9.50;99.90
15357;DHT22;7778;48.792;9.260;2022-12-20T13:52:20;9.40;99.90
15357;DHT22;7778;48.792;9.260;2022-12-20T13:55:22;9.30;99.90
15357;DHT22;7778;48.792;9.260;2022-12-20T13:58:13;9.20;99.90
15357;DHT22;7778;48.792;9.260;2022-12-20T14:01:04;9.10;99.90
15357;DHT22;7778;48.792;9.260;2022-12-20T14:03:52;9.10;99.90
15357;DHT22;7778;48.792;9.260;2022-12-20T14:06:37;9.20;99.90
15357;DHT22;7778;48.792;9.260;2022-12-20T14:09:28;9.10;99.90
15357;DHT22;7778;48.792;9.260;2022-12-20T14:12:17;9.10;99.90
15357;DHT22;7778;48.792;9.260;2022-12-20T14:15:20;9.20;99.90
15357;DHT22;7778;48.792;9.260;2022-12-20T14:18:16;9.30;99.90
15357;DHT22;7778;48.792;9.260;2022-12-20T14:21:04;9.40;99.90
15357;DHT22;7778;48.792;9.260;2022-12-20T14:23:51;9.50;99.90
15357;DHT22;7778;48.792;9.260;2022-12-20T14:26:41;9.50;99.90
15357;DHT22;7778;48.792;9.260;2022-12-20T14:29:32;9.60;99.90
15357;DHT22;7778;48.792;9.260;2022-12-20T14:32:19;9.70;99.90
15357;DHT22;7778;48.792;9.260;2022-12-20T14:35:18;9.60;99.90
15357;DHT22;7778;48.792;9.260;2022-12-20T14:38:04;9.60;99.90
15357;DHT22;7778;48.792;9.260;2022-12-20T14:40:50;9.60;99.90
15357;DHT22;7778;48.792;9.260;2022-12-20T14:43:37;9.60;99.90
15357;DHT22;7778;48.792;9.260;2022-12-20T14:46:24;9.60;99.90
15357;DHT22;7778;48.792;9.260;2022-12-20T14:49:19;9.60;99.90
15357;DHT22;7778;48.792;9.260;2022-12-20T14:52:12;9.50;99.90
15357;DHT22;7778;48.792;9.260;2022-12-20T14:55:05;9.40;99.90
15357;DHT22;7778;48.792;9.260;2022-12-20T14:57:54;9.40;99.90
15357;DHT22;7778;48.792;9.260;2022-12-20T15:00:54;9.40;99.90
15357;DHT22;7778;48.792;9.260;2022-12-20T15:03:49;9.30;99.90
15357;DHT22;7778;48.792;9.260;2022-12-20T15:06:40;9.20;99.90
15357;DHT22;7778;48.792;9.260;2022-12-20T15:09:28;9.20;99.90
15357;DHT22;7778;48.792;9.260;2022-12-20T15:12:14;9.10;99.90
15357;DHT22;7778;48.792;9.260;2022-12-20T15:14:59;9.20;99.90
15357;DHT22;7778;48.792;9.260;2022-12-20T15:17:46;9.20;99.90
15357;DHT22;7778;48.792;9.260;2022-12-20T15:20:33;9.30;99.90
15357;DHT22;7778;48.792;9.260;2022-12-20T15:23:20;9.50;99.90
15357;DHT22;7778;48.792;9.260;2022-12-20T15:26:07;9.40;99.90
15357;DHT22;7778;48.792;9.260;2022-12-20T15:28:55;9.60;99.90
15357;DHT22;7778;48.792;9.260;2022-12-20T15:31:42;9.50;99.90
15357;DHT22;7778;48.792;9.260;2022-12-20T15:34:31;9.50;99.90
15357;DHT22;7778;48.792;9.260;2022-12-20T15:37:19;9.50;99.90
15357;DHT22;7778;48.792;9.260;2022-12-20T15:40:06;9.50;99.90
15357;DHT22;7778;48.792;9.260;2022-12-20T15:42:55;9.50;99.90
15357;DHT22;7778;48.792;9.260;2022-12-20T15:45:43;9.50;99.90
15357;DHT22;7778;48.792;9.260;2022-12-20T15:48:30;9.40;99.90
15357;DHT22;7778;48.792;9.260;2022-12-20T15:51:25;9.40;99.90
15357;DHT22;7778;48.792;9.260;2022-12-20T15:54:20;9.50;99.90
15357;DHT22;7778;48.792;9.260;2022-12-20T15:57:11;9.20;99.90
15357;DHT22;7778;48.792;9.260;2022-12-20T15:59:58;9.00;99.90
15357;DHT22;7778;48.792;9.260;2022-12-20T16:02:44;8.90;99.90
15357;DHT22;7778;48.792;9.260;2022-12-20T16:05:30;9.00;99.90
15357;DHT22;7778;48.792;9.260;2022-12-20T16:08:17;8.90;99.90
15357;DHT22;7778;48.792;9.260;2022-12-20T16:11:05;8.90;99.90
15357;DHT22;7778;48.792;9.260;2022-12-20T16:13:52;9.10;99.90
15357;DHT22;7778;48.792;9.260;2022-12-20T16:16:38;8.80;99.90
15357;DHT22;7778;48.792;9.260;2022-12-20T16:19:24;8.80;99.90
15357;DHT22;7778;48.792;9.260;2022-12-20T16:22:14;8.70;99.90
15357;DHT22;7778;48.792;9.260;2022-12-20T16:25:00;8.70;99.90
15357;DHT22;7778;48.792;9.260;2022-12-20T16:27:47;8.60;99.90
15357;DHT22;7778;48.792;9.260;2022-12-20T16:30:33;8.60;99.90
15357;DHT22;7778;48.792;9.260;2022-12-20T16:33:19;8.80;99.90
15357;DHT22;7778;48.792;9.260;2022-12-20T16:36:08;8.80;99.90
15357;DHT22;7778;48.792;9.260;2022-12-20T16:38:55;8.80;99.90
15357;DHT22;7778;48.792;9.260;2022-12-20T16:41:41;8.90;99.90
15357;DHT22;7778;48.792;9.260;2022-12-20T16:44:28;9.00;99.90
15357;DHT22;7778;48.792;9.260;2022-12-20T16:47:14;8.80;99.90
15357;DHT22;7778;48.792;9.260;2022-12-20T16:50:00;8.80;99.90
15357;DHT22;7778;48.792;9.260;2022-12-20T16:52:45;8.90;99.90
15357;DHT22;7778;48.792;9.260;2022-12-20T16:55:33;8.90;99.90
15357;DHT22;7778;48.792;9.260;2022-12-20T16:58:18;8.90;99.90
15357;DHT22;7778;48.792;9.260;2022-12-20T17:01:09;8.90;99.90
15357;DHT22;7778;48.792;9.260;2022-12-20T17:03:59;8.90;99.90
15357;DHT22;7778;48.792;9.260;2022-12-20T17:06:45;8.90;99.90
15357;DHT22;7778;48.792;9.260;2022-12-20T17:09:31;8.80;99.90
15357;DHT22;7778;48.792;9.260;2022-12-20T17:12:19;8.80;99.90
15357;DHT22;7778;48.792;9.260;2022-12-20T17:15:08;8.90;99.90
15357;DHT22;7778;48.792;9.260;2022-12-20T17:18:00;8.90;99.90
15357;DHT22;7778;48.792;9.260;2022-12-20T17:20:46;9.00;99.90
15357;DHT22;7778;48.792;9.260;2022-12-20T17:23:32;9.00;99.90
15357;DHT22;7778;48.792;9.260;2022-12-20T17:26:22;9.10;99.90
15357;DHT22;7778;48.792;9.260;2022-12-20T17:29:09;9.10;99.90
15357;DHT22;7778;48.792;9.260;2022-12-20T17:31:55;9.10;99.90
15357;DHT22;7778;48.792;9.260;2022-12-20T17:34:42;9.10;99.90
15357;DHT22;7778;48.792;9.260;2022-12-20T17:37:28;9.10;99.90
15357;DHT22;7778;48.792;9.260;2022-12-20T17:40:14;9.10;99.90
15357;DHT22;7778;48.792;9.260;2022-12-20T17:42:59;9.20;99.90
15357;DHT22;7778;48.792;9.260;2022-12-20T17:45:45;9.30;99.90
15357;DHT22;7778;48.792;9.260;2022-12-20T17:48:31;9.10;99.90
15357;DHT22;7778;48.792;9.260;2022-12-20T17:51:19;9.20;99.90
15357;DHT22;7778;48.792;9.260;2022-12-20T17:54:14;9.20;99.90
15357;DHT22;7778;48.792;9.260;2022-12-20T17:57:01;9.20;99.90
15357;DHT22;7778;48.792;9.260;2022-12-20T17:59:47;9.50;99.90
15357;DHT22;7778;48.792;9.260;2022-12-20T18:02:32;9.30;99.90
15357;DHT22;7778;48.792;9.260;2022-12-20T18:05:18;9.50;99.90
15357;DHT22;7778;48.792;9.260;2022-12-20T18:08:07;9.30;99.90
15357;DHT22;7778;48.792;9.260;2022-12-20T18:10:53;9.30;99.90
15357;DHT22;7778;48.792;9.260;2022-12-20T18:13:41;9.30;99.90
15357;DHT22;7778;48.792;9.260;2022-12-20T18:16:30;9.40;99.90
15357;DHT22;7778;48.792;9.260;2022-12-20T18:19:18;9.40;99.90
15357;DHT22;7778;48.792;9.260;2022-12-20T18:22:03;9.40;99.90
15357;DHT22;7778;48.792;9.260;2022-12-20T18:24:50;9.30;99.90
15357;DHT22;7778;48.792;9.260;2022-12-20T18:27:37;9.20;99.90
15357;DHT22;7778;48.792;9.260;2022-12-20T18:30:24;9.20;99.90
15357;DHT22;7778;48.792;9.260;2022-12-20T18:33:10;9.20;99.90